VCP62L EFHK-EGLL
Flight info
| Callsign | VCP62L |
|---|---|
| Flight time | 2h 25m |
| Altitude | 40000 |
| Route | NUNTO Y367 OLPED DCT OBEVI DCT NISIX DCT DOROR DCT LONAM DCT BINBO DCT AKOKO N866 BUKUT P7 BARMI |
| Aircraft | A359/H-SDE2E3GHIJ3J4J5LM1ORWXY/LB1D1 |
Departure
| Time | 2026-04-23 19:07 |
|---|---|
| Airport | Helsinki Vantaa Airport (EFHK) |
Arrival
| Time | 2026-04-23 21:32 |
|---|---|
| Airport | London Heathrow Airport (EGLL) |
| Time | Latitude | Longitude | Altitude | Speed | Heading |
|---|---|---|---|---|---|
| 2026-04-23 18:07 | 60.31515 | 24.95707 | 173 ft | 0 kts | 137° |
| 2026-04-23 18:56 | 60.31523 | 24.95691 | 173 ft | 4 kts | 137° |
| 2026-04-23 18:56 | 60.31543 | 24.95654 | 173 ft | 4 kts | 137° |
| 2026-04-23 18:56 | 60.31559 | 24.95625 | 173 ft | 4 kts | 120° |
| 2026-04-23 18:57 | 60.31558 | 24.95589 | 173 ft | 4 kts | 50° |
| 2026-04-23 18:57 | 60.31541 | 24.95550 | 173 ft | 4 kts | 47° |
| 2026-04-23 18:57 | 60.31529 | 24.95523 | 173 ft | 1 kts | 47° |
| 2026-04-23 19:00 | 60.31538 | 24.95544 | 173 ft | 6 kts | 47° |
| 2026-04-23 19:00 | 60.31589 | 24.95645 | 173 ft | 11 kts | 33° |
| 2026-04-23 19:00 | 60.31632 | 24.95640 | 173 ft | 6 kts | 341° |
| 2026-04-23 19:00 | 60.31653 | 24.95617 | 173 ft | 0 kts | 327° |
| 2026-04-23 19:01 | 60.31657 | 24.95612 | 173 ft | 0 kts | 325° |
| 2026-04-23 19:02 | 60.31661 | 24.95606 | 173 ft | 2 kts | 322° |
| 2026-04-23 19:02 | 60.31695 | 24.95521 | 174 ft | 7 kts | 284° |
| 2026-04-23 19:02 | 60.31675 | 24.95417 | 176 ft | 11 kts | 232° |
| 2026-04-23 19:02 | 60.31608 | 24.95255 | 176 ft | 16 kts | 228° |
| 2026-04-23 19:03 | 60.31530 | 24.95078 | 176 ft | 18 kts | 226° |
| 2026-04-23 19:03 | 60.31439 | 24.94883 | 173 ft | 21 kts | 227° |
| 2026-04-23 19:03 | 60.31333 | 24.94655 | 167 ft | 24 kts | 227° |
| 2026-04-23 19:03 | 60.31212 | 24.94393 | 165 ft | 26 kts | 227° |
| 2026-04-23 19:04 | 60.31091 | 24.94134 | 163 ft | 12 kts | 227° |
| 2026-04-23 19:04 | 60.31042 | 24.94022 | 164 ft | 11 kts | 229° |
| 2026-04-23 19:04 | 60.31029 | 24.93891 | 165 ft | 10 kts | 288° |
| 2026-04-23 19:04 | 60.31077 | 24.93764 | 165 ft | 12 kts | 318° |
| 2026-04-23 19:05 | 60.31144 | 24.93694 | 164 ft | 8 kts | 13° |
| 2026-04-23 19:05 | 60.31166 | 24.93725 | 164 ft | 0 kts | 44° |
| 2026-04-23 19:06 | 60.31167 | 24.93727 | 164 ft | 4 kts | 44° |
| 2026-04-23 19:06 | 60.31353 | 24.94122 | 167 ft | 73 kts | 49° |
| 2026-04-23 19:06 | 60.31831 | 24.95190 | 180 ft | 130 kts | 51° |
| 2026-04-23 19:07 | 60.32554 | 24.96758 | 368 ft | 160 kts | 46° |
| 2026-04-23 19:07 | 60.33295 | 24.98339 | 1078 ft | 155 kts | 45° |
| 2026-04-23 19:07 | 60.34041 | 24.99982 | 1638 ft | 161 kts | 46° |
| 2026-04-23 19:07 | 60.34829 | 25.01738 | 2056 ft | 181 kts | 46° |
| 2026-04-23 19:08 | 60.35742 | 25.03762 | 2340 ft | 208 kts | 46° |
| 2026-04-23 19:08 | 60.36771 | 25.06039 | 2569 ft | 236 kts | 46° |
| 2026-04-23 19:08 | 60.37915 | 25.08580 | 3122 ft | 249 kts | 46° |
| 2026-04-23 19:08 | 60.39114 | 25.11119 | 3900 ft | 251 kts | 39° |
| 2026-04-23 19:09 | 60.40642 | 25.12711 | 4631 ft | 248 kts | 9° |
| 2026-04-23 19:09 | 60.42362 | 25.12996 | 5441 ft | 249 kts | 360° |
| 2026-04-23 19:09 | 60.44101 | 25.13028 | 6263 ft | 250 kts | 359° |
| 2026-04-23 19:09 | 60.45839 | 25.12901 | 7110 ft | 250 kts | 351° |
| 2026-04-23 19:10 | 60.47510 | 25.11920 | 7915 ft | 253 kts | 334° |
| 2026-04-23 19:10 | 60.48912 | 25.09753 | 8700 ft | 258 kts | 312° |
| 2026-04-23 19:10 | 60.49735 | 25.06481 | 9470 ft | 268 kts | 287° |
| 2026-04-23 19:10 | 60.49729 | 25.02685 | 10179 ft | 284 kts | 263° |
| 2026-04-23 19:11 | 60.49147 | 24.98678 | 10539 ft | 309 kts | 254° |
| 2026-04-23 19:11 | 60.48242 | 24.94544 | 10861 ft | 332 kts | 250° |
| 2026-04-23 19:11 | 60.47159 | 24.90255 | 11152 ft | 352 kts | 248° |
| 2026-04-23 19:11 | 60.45992 | 24.85765 | 11544 ft | 367 kts | 248° |
| 2026-04-23 19:12 | 60.45207 | 24.82721 | 11961 ft | 371 kts | 248° |
| 2026-04-23 19:12 | 60.43635 | 24.76447 | 12870 ft | 377 kts | 250° |
| 2026-04-23 19:12 | 60.42475 | 24.71649 | 13537 ft | 382 kts | 251° |
| 2026-04-23 19:12 | 60.41320 | 24.66786 | 14212 ft | 385 kts | 251° |
| 2026-04-23 19:13 | 60.40180 | 24.61933 | 14841 ft | 389 kts | 252° |
| 2026-04-23 19:13 | 60.39016 | 24.56961 | 15481 ft | 393 kts | 252° |
| 2026-04-23 19:13 | 60.37839 | 24.51935 | 16101 ft | 398 kts | 252° |
| 2026-04-23 19:13 | 60.36648 | 24.46867 | 16717 ft | 402 kts | 252° |
| 2026-04-23 19:14 | 60.35441 | 24.41753 | 17314 ft | 406 kts | 253° |
| 2026-04-23 19:14 | 60.34212 | 24.36578 | 17942 ft | 410 kts | 253° |
| 2026-04-23 19:14 | 60.32973 | 24.31364 | 18522 ft | 414 kts | 253° |
| 2026-04-23 19:14 | 60.31715 | 24.26096 | 19086 ft | 419 kts | 253° |
| 2026-04-23 19:15 | 60.30442 | 24.20766 | 19648 ft | 425 kts | 253° |
| 2026-04-23 19:15 | 60.29151 | 24.15377 | 20261 ft | 429 kts | 253° |
| 2026-04-23 19:15 | 60.27863 | 24.10011 | 20801 ft | 433 kts | 253° |
| 2026-04-23 19:15 | 60.26541 | 24.04522 | 21376 ft | 438 kts | 253° |
| 2026-04-23 19:16 | 60.25204 | 23.98986 | 21910 ft | 442 kts | 253° |
| 2026-04-23 19:16 | 60.23849 | 23.93389 | 22423 ft | 447 kts | 253° |
| 2026-04-23 19:16 | 60.22479 | 23.87744 | 22951 ft | 451 kts | 253° |
| 2026-04-23 19:17 | 60.19694 | 23.76314 | 23928 ft | 460 kts | 253° |
| 2026-04-23 19:17 | 60.18277 | 23.70525 | 24459 ft | 463 kts | 253° |
| 2026-04-23 19:17 | 60.16866 | 23.64779 | 24956 ft | 467 kts | 254° |
| 2026-04-23 19:17 | 60.15427 | 23.58931 | 25476 ft | 469 kts | 254° |
| 2026-04-23 19:18 | 60.13975 | 23.53046 | 25968 ft | 472 kts | 254° |
| 2026-04-23 19:18 | 60.12510 | 23.47123 | 26411 ft | 475 kts | 254° |
| 2026-04-23 19:18 | 60.11035 | 23.41169 | 26888 ft | 479 kts | 255° |
| 2026-04-23 19:18 | 60.09543 | 23.35168 | 27323 ft | 482 kts | 255° |
| 2026-04-23 19:19 | 60.06525 | 23.23080 | 28187 ft | 489 kts | 255° |
| 2026-04-23 19:19 | 60.05021 | 23.17078 | 28685 ft | 490 kts | 255° |
| 2026-04-23 19:20 | 60.01939 | 23.04841 | 29508 ft | 495 kts | 255° |
| 2026-04-23 19:20 | 60.00381 | 22.98680 | 29866 ft | 498 kts | 255° |
| 2026-04-23 19:20 | 59.98811 | 22.92483 | 30218 ft | 501 kts | 255° |
| 2026-04-23 19:20 | 59.97229 | 22.86257 | 30477 ft | 506 kts | 254° |
| 2026-04-23 19:21 | 59.95628 | 22.79961 | 30684 ft | 511 kts | 254° |
| 2026-04-23 19:21 | 59.92382 | 22.67286 | 31360 ft | 514 kts | 253° |
| 2026-04-23 19:21 | 59.90746 | 22.60935 | 31644 ft | 516 kts | 253° |
| 2026-04-23 19:22 | 59.89122 | 22.54646 | 31974 ft | 517 kts | 253° |
| 2026-04-23 19:22 | 59.87476 | 22.48294 | 32395 ft | 516 kts | 253° |
| 2026-04-23 19:22 | 59.84189 | 22.35669 | 33193 ft | 513 kts | 252° |
| 2026-04-23 19:23 | 59.82546 | 22.29376 | 33593 ft | 511 kts | 252° |
| 2026-04-23 19:23 | 59.80911 | 22.23130 | 33997 ft | 509 kts | 252° |
| 2026-04-23 19:23 | 59.79276 | 22.16895 | 34331 ft | 508 kts | 252° |
| 2026-04-23 19:24 | 59.76025 | 22.04544 | 34927 ft | 508 kts | 252° |
| 2026-04-23 19:24 | 59.74388 | 21.98348 | 35214 ft | 508 kts | 252° |
| 2026-04-23 19:24 | 59.71100 | 21.85951 | 35746 ft | 508 kts | 251° |
| 2026-04-23 19:25 | 59.67803 | 21.73591 | 36245 ft | 508 kts | 251° |
| 2026-04-23 19:25 | 59.64493 | 21.61255 | 36675 ft | 508 kts | 250° |
| 2026-04-23 19:26 | 59.61198 | 21.49062 | 37258 ft | 503 kts | 250° |
| 2026-04-23 19:26 | 59.59549 | 21.42990 | 37594 ft | 500 kts | 250° |
| 2026-04-23 19:27 | 59.56267 | 21.30928 | 38011 ft | 499 kts | 250° |
| 2026-04-23 19:27 | 59.51317 | 21.12835 | 38474 ft | 500 kts | 249° |
| 2026-04-23 19:28 | 59.48023 | 21.00887 | 38782 ft | 501 kts | 249° |
| 2026-04-23 19:28 | 59.44689 | 20.88861 | 39063 ft | 501 kts | 249° |
| 2026-04-23 19:29 | 59.43014 | 20.82845 | 39249 ft | 500 kts | 249° |
| 2026-04-23 19:29 | 59.39676 | 20.70897 | 39522 ft | 500 kts | 249° |
| 2026-04-23 19:30 | 59.36345 | 20.59024 | 39739 ft | 501 kts | 248° |
| 2026-04-23 19:30 | 59.34662 | 20.53052 | 39850 ft | 501 kts | 248° |
| 2026-04-23 19:31 | 59.29697 | 20.35019 | 39945 ft | 499 kts | 252° |
| 2026-04-23 19:31 | 59.26781 | 20.22724 | 39942 ft | 498 kts | 253° |
| 2026-04-23 19:32 | 59.23912 | 20.10515 | 39945 ft | 498 kts | 252° |
| 2026-04-23 19:32 | 59.20959 | 19.98274 | 39945 ft | 499 kts | 252° |
| 2026-04-23 19:33 | 59.17958 | 19.86081 | 39943 ft | 498 kts | 252° |
| 2026-04-23 19:33 | 59.13433 | 19.67876 | 39960 ft | 498 kts | 252° |
| 2026-04-23 19:34 | 59.10428 | 19.55839 | 39964 ft | 498 kts | 251° |
| 2026-04-23 19:35 | 59.05865 | 19.37702 | 39965 ft | 498 kts | 251° |
| 2026-04-23 19:35 | 59.02812 | 19.25647 | 39979 ft | 497 kts | 251° |
| 2026-04-23 19:36 | 58.99774 | 19.13712 | 39974 ft | 496 kts | 251° |
| 2026-04-23 19:36 | 58.96707 | 19.01723 | 39964 ft | 496 kts | 251° |
| 2026-04-23 19:37 | 58.93626 | 18.89749 | 39965 ft | 496 kts | 251° |
| 2026-04-23 19:37 | 58.90533 | 18.77793 | 39983 ft | 496 kts | 251° |
| 2026-04-23 19:38 | 58.87457 | 18.65964 | 39981 ft | 495 kts | 251° |
| 2026-04-23 19:38 | 58.84354 | 18.54089 | 39962 ft | 495 kts | 251° |
| 2026-04-23 19:39 | 58.81238 | 18.42234 | 39964 ft | 495 kts | 251° |
| 2026-04-23 19:39 | 58.78111 | 18.30402 | 39983 ft | 495 kts | 251° |
| 2026-04-23 19:40 | 58.74993 | 18.18666 | 39982 ft | 495 kts | 251° |
| 2026-04-23 19:40 | 58.71843 | 18.06870 | 39980 ft | 495 kts | 250° |
| 2026-04-23 19:41 | 58.68685 | 17.95100 | 39983 ft | 495 kts | 250° |
| 2026-04-23 19:41 | 58.65519 | 17.83369 | 39978 ft | 494 kts | 250° |
| 2026-04-23 19:42 | 58.62369 | 17.71753 | 39984 ft | 494 kts | 250° |
| 2026-04-23 19:42 | 58.59189 | 17.60079 | 39983 ft | 494 kts | 250° |
| 2026-04-23 19:43 | 58.55997 | 17.48433 | 39976 ft | 494 kts | 250° |
| 2026-04-23 19:43 | 58.52797 | 17.36820 | 39963 ft | 493 kts | 250° |
| 2026-04-23 19:44 | 58.49612 | 17.25315 | 39963 ft | 493 kts | 250° |
| 2026-04-23 19:44 | 58.46395 | 17.13750 | 39982 ft | 493 kts | 250° |
| 2026-04-23 19:45 | 58.43170 | 17.02214 | 39964 ft | 492 kts | 249° |
| 2026-04-23 19:45 | 58.39957 | 16.90783 | 39981 ft | 492 kts | 249° |
| 2026-04-23 19:46 | 58.36719 | 16.79316 | 39978 ft | 491 kts | 249° |
| 2026-04-23 19:46 | 58.33474 | 16.67880 | 39990 ft | 490 kts | 249° |
| 2026-04-23 19:47 | 58.30772 | 16.58404 | 39987 ft | 490 kts | 249° |
| 2026-04-23 19:47 | 58.26982 | 16.45178 | 39988 ft | 490 kts | 249° |
| 2026-04-23 19:48 | 58.23713 | 16.33831 | 39985 ft | 489 kts | 249° |
| 2026-04-23 19:48 | 58.20436 | 16.22512 | 39994 ft | 489 kts | 249° |
| 2026-04-23 19:49 | 58.17150 | 16.11216 | 39997 ft | 489 kts | 249° |
| 2026-04-23 19:49 | 58.13880 | 16.00026 | 39998 ft | 489 kts | 248° |
| 2026-04-23 19:50 | 58.10573 | 15.88770 | 40001 ft | 490 kts | 248° |
| 2026-04-23 19:50 | 58.07256 | 15.77535 | 40000 ft | 490 kts | 248° |
| 2026-04-23 19:51 | 58.03929 | 15.66320 | 40001 ft | 490 kts | 248° |
| 2026-04-23 19:51 | 58.00618 | 15.55206 | 40007 ft | 489 kts | 248° |
| 2026-04-23 19:52 | 57.97843 | 15.45937 | 40014 ft | 488 kts | 248° |
| 2026-04-23 19:52 | 57.93929 | 15.32926 | 40024 ft | 488 kts | 248° |
| 2026-04-23 19:53 | 57.90573 | 15.21822 | 40028 ft | 488 kts | 248° |
| 2026-04-23 19:53 | 57.87228 | 15.10812 | 40026 ft | 488 kts | 247° |
| 2026-04-23 19:54 | 57.83858 | 14.99775 | 40030 ft | 487 kts | 247° |
| 2026-04-23 19:54 | 57.80486 | 14.88779 | 40037 ft | 486 kts | 247° |
| 2026-04-23 19:55 | 57.77111 | 14.77825 | 40036 ft | 485 kts | 247° |
| 2026-04-23 19:55 | 57.73758 | 14.66993 | 40040 ft | 484 kts | 246° |
| 2026-04-23 19:56 | 57.70379 | 14.56126 | 40049 ft | 483 kts | 246° |
| 2026-04-23 19:56 | 57.66999 | 14.45304 | 40048 ft | 482 kts | 246° |
| 2026-04-23 19:57 | 57.63610 | 14.34503 | 40045 ft | 482 kts | 246° |
| 2026-04-23 19:57 | 57.60787 | 14.25546 | 40042 ft | 481 kts | 246° |
| 2026-04-23 19:58 | 57.56835 | 14.13063 | 40041 ft | 481 kts | 246° |
| 2026-04-23 19:58 | 57.53424 | 14.02339 | 40046 ft | 481 kts | 246° |
| 2026-04-23 19:59 | 57.50026 | 13.91706 | 40051 ft | 481 kts | 245° |
| 2026-04-23 19:59 | 57.46606 | 13.81052 | 40044 ft | 480 kts | 245° |
| 2026-04-23 20:00 | 57.43178 | 13.70421 | 40046 ft | 480 kts | 245° |
| 2026-04-23 20:00 | 57.39743 | 13.59814 | 40063 ft | 480 kts | 245° |
| 2026-04-23 20:01 | 57.36298 | 13.49225 | 40053 ft | 480 kts | 245° |
| 2026-04-23 20:01 | 57.32842 | 13.38650 | 40047 ft | 480 kts | 245° |
| 2026-04-23 20:02 | 57.29400 | 13.28164 | 40051 ft | 480 kts | 245° |
| 2026-04-23 20:02 | 57.25929 | 13.17638 | 40075 ft | 479 kts | 244° |
| 2026-04-23 20:03 | 57.22451 | 13.07135 | 40056 ft | 479 kts | 244° |
| 2026-04-23 20:03 | 57.18966 | 12.96658 | 40076 ft | 479 kts | 244° |
| 2026-04-23 20:04 | 57.15500 | 12.86281 | 40074 ft | 479 kts | 244° |
| 2026-04-23 20:04 | 57.12004 | 12.75864 | 40077 ft | 478 kts | 244° |
| 2026-04-23 20:05 | 57.09096 | 12.67231 | 40076 ft | 478 kts | 244° |
| 2026-04-23 20:05 | 57.05018 | 12.55180 | 40075 ft | 477 kts | 243° |
| 2026-04-23 20:06 | 57.01503 | 12.44839 | 40077 ft | 477 kts | 243° |
| 2026-04-23 20:06 | 56.97986 | 12.34538 | 40057 ft | 477 kts | 243° |
| 2026-04-23 20:07 | 56.94457 | 12.24244 | 40083 ft | 477 kts | 243° |
| 2026-04-23 20:07 | 56.90943 | 12.14036 | 40082 ft | 477 kts | 243° |
| 2026-04-23 20:08 | 56.87399 | 12.03786 | 40082 ft | 477 kts | 243° |
| 2026-04-23 20:08 | 56.83843 | 11.93546 | 40089 ft | 477 kts | 242° |
| 2026-04-23 20:09 | 56.80296 | 11.83378 | 40091 ft | 474 kts | 242° |
| 2026-04-23 20:09 | 56.77342 | 11.74943 | 40101 ft | 474 kts | 242° |
| 2026-04-23 20:10 | 56.73791 | 11.64836 | 40101 ft | 474 kts | 242° |
| 2026-04-23 20:10 | 56.69649 | 11.53101 | 40110 ft | 474 kts | 242° |
| 2026-04-23 20:11 | 56.66681 | 11.44728 | 40118 ft | 474 kts | 242° |
| 2026-04-23 20:11 | 56.63102 | 11.34672 | 40119 ft | 474 kts | 241° |
| 2026-04-23 20:12 | 56.58935 | 11.23017 | 40130 ft | 473 kts | 241° |
| 2026-04-23 20:12 | 56.55926 | 11.14633 | 40127 ft | 473 kts | 241° |
| 2026-04-23 20:13 | 56.52352 | 11.04715 | 40127 ft | 473 kts | 241° |
| 2026-04-23 20:13 | 56.48752 | 10.94763 | 40131 ft | 472 kts | 241° |
| 2026-04-23 20:14 | 56.45147 | 10.84841 | 40129 ft | 472 kts | 240° |
| 2026-04-23 20:14 | 56.41537 | 10.74942 | 40128 ft | 471 kts | 240° |
| 2026-04-23 20:15 | 56.37946 | 10.65138 | 40127 ft | 471 kts | 240° |
| 2026-04-23 20:15 | 56.34322 | 10.55283 | 40127 ft | 471 kts | 240° |
| 2026-04-23 20:16 | 56.30694 | 10.45457 | 40128 ft | 471 kts | 240° |
| 2026-04-23 20:16 | 56.27060 | 10.35654 | 40127 ft | 471 kts | 240° |
| 2026-04-23 20:17 | 56.23444 | 10.25940 | 40131 ft | 470 kts | 239° |
| 2026-04-23 20:17 | 56.19797 | 10.16181 | 40138 ft | 470 kts | 239° |
| 2026-04-23 20:18 | 56.16143 | 10.06443 | 40137 ft | 470 kts | 239° |
| 2026-04-23 20:18 | 56.12482 | 9.96724 | 40156 ft | 470 kts | 239° |
| 2026-04-23 20:19 | 56.08812 | 9.87020 | 40160 ft | 470 kts | 239° |
| 2026-04-23 20:19 | 56.05159 | 9.77399 | 40165 ft | 470 kts | 239° |
| 2026-04-23 20:20 | 56.01475 | 9.67734 | 40164 ft | 470 kts | 239° |
| 2026-04-23 20:20 | 55.97784 | 9.58091 | 40174 ft | 470 kts | 239° |
| 2026-04-23 20:21 | 55.94080 | 9.48449 | 40174 ft | 471 kts | 238° |
| 2026-04-23 20:21 | 55.90367 | 9.38824 | 40174 ft | 471 kts | 238° |
| 2026-04-23 20:22 | 55.86646 | 9.29217 | 40192 ft | 471 kts | 238° |
| 2026-04-23 20:22 | 55.82939 | 9.19684 | 40180 ft | 471 kts | 238° |
| 2026-04-23 20:23 | 55.79198 | 9.10099 | 40181 ft | 471 kts | 238° |
| 2026-04-23 20:23 | 55.75453 | 9.00542 | 40191 ft | 471 kts | 238° |
| 2026-04-23 20:24 | 55.71701 | 8.91004 | 40184 ft | 471 kts | 237° |
| 2026-04-23 20:24 | 55.67945 | 8.81492 | 40199 ft | 471 kts | 237° |
| 2026-04-23 20:25 | 55.64209 | 8.72069 | 40211 ft | 471 kts | 237° |
| 2026-04-23 20:25 | 55.60442 | 8.62603 | 40226 ft | 470 kts | 237° |
| 2026-04-23 20:26 | 55.56671 | 8.53162 | 40230 ft | 470 kts | 237° |
| 2026-04-23 20:26 | 55.52896 | 8.43751 | 40249 ft | 470 kts | 237° |
| 2026-04-23 20:27 | 55.49141 | 8.34423 | 40247 ft | 469 kts | 237° |
| 2026-04-23 20:27 | 55.45358 | 8.25060 | 40231 ft | 469 kts | 236° |
| 2026-04-23 20:28 | 55.41564 | 8.15707 | 40232 ft | 469 kts | 236° |
| 2026-04-23 20:28 | 55.37763 | 8.06370 | 40254 ft | 469 kts | 236° |
| 2026-04-23 20:29 | 55.33956 | 7.97056 | 40240 ft | 469 kts | 236° |
| 2026-04-23 20:29 | 55.30164 | 7.87813 | 40260 ft | 469 kts | 236° |
| 2026-04-23 20:30 | 55.26219 | 7.78699 | 40262 ft | 470 kts | 232° |
| 2026-04-23 20:30 | 55.19928 | 7.65524 | 40260 ft | 470 kts | 231° |
| 2026-04-23 20:31 | 55.15714 | 7.56779 | 40270 ft | 470 kts | 231° |
| 2026-04-23 20:31 | 55.11486 | 7.48037 | 40265 ft | 470 kts | 231° |
| 2026-04-23 20:32 | 55.07283 | 7.39378 | 40266 ft | 471 kts | 231° |
| 2026-04-23 20:32 | 55.03041 | 7.30672 | 40264 ft | 471 kts | 231° |
| 2026-04-23 20:33 | 54.98792 | 7.21982 | 40272 ft | 471 kts | 230° |
| 2026-04-23 20:33 | 54.94536 | 7.13308 | 40275 ft | 471 kts | 230° |
| 2026-04-23 20:34 | 54.90275 | 7.04655 | 40275 ft | 471 kts | 230° |
| 2026-04-23 20:34 | 54.86036 | 6.96078 | 40306 ft | 471 kts | 230° |
| 2026-04-23 20:35 | 54.81764 | 6.87464 | 40322 ft | 471 kts | 230° |
| 2026-04-23 20:35 | 54.77484 | 6.78865 | 40332 ft | 471 kts | 230° |
| 2026-04-23 20:36 | 54.73202 | 6.70292 | 40324 ft | 471 kts | 230° |
| 2026-04-23 20:36 | 54.68915 | 6.61739 | 40341 ft | 470 kts | 229° |
| 2026-04-23 20:37 | 54.64651 | 6.53262 | 40340 ft | 471 kts | 229° |
| 2026-04-23 20:37 | 54.60348 | 6.44736 | 40350 ft | 471 kts | 229° |
| 2026-04-23 20:38 | 54.56036 | 6.36225 | 40355 ft | 471 kts | 229° |
| 2026-04-23 20:38 | 54.51721 | 6.27734 | 40359 ft | 471 kts | 229° |
| 2026-04-23 20:39 | 54.47429 | 6.19319 | 40363 ft | 471 kts | 229° |
| 2026-04-23 20:39 | 54.43102 | 6.10866 | 40366 ft | 472 kts | 229° |
| 2026-04-23 20:40 | 54.38760 | 6.02412 | 40365 ft | 472 kts | 228° |
| 2026-04-23 20:40 | 54.34414 | 5.93980 | 40367 ft | 471 kts | 228° |
| 2026-04-23 20:41 | 54.30097 | 5.85633 | 40366 ft | 471 kts | 228° |
| 2026-04-23 20:41 | 54.25744 | 5.77245 | 40374 ft | 471 kts | 228° |
| 2026-04-23 20:42 | 54.21385 | 5.68875 | 40386 ft | 471 kts | 228° |
| 2026-04-23 20:42 | 54.17019 | 5.60521 | 40382 ft | 471 kts | 228° |
| 2026-04-23 20:43 | 54.12650 | 5.52189 | 40382 ft | 471 kts | 228° |
| 2026-04-23 20:43 | 54.08279 | 5.43880 | 40388 ft | 470 kts | 228° |
| 2026-04-23 20:44 | 54.03936 | 5.35655 | 40387 ft | 470 kts | 227° |
| 2026-04-23 20:44 | 53.99560 | 5.27395 | 40384 ft | 470 kts | 227° |
| 2026-04-23 20:45 | 53.95180 | 5.19154 | 40395 ft | 471 kts | 227° |
| 2026-04-23 20:45 | 53.90778 | 5.10900 | 40394 ft | 472 kts | 227° |
| 2026-04-23 20:46 | 53.86396 | 5.02712 | 40394 ft | 472 kts | 227° |
| 2026-04-23 20:46 | 53.81983 | 4.94493 | 40395 ft | 472 kts | 226° |
| 2026-04-23 20:47 | 53.77567 | 4.86298 | 40404 ft | 471 kts | 226° |
| 2026-04-23 20:47 | 53.73150 | 4.78126 | 40403 ft | 471 kts | 226° |
| 2026-04-23 20:48 | 53.68727 | 4.69973 | 40403 ft | 471 kts | 226° |
| 2026-04-23 20:48 | 53.64304 | 4.61845 | 40403 ft | 470 kts | 226° |
| 2026-04-23 20:49 | 53.59906 | 4.53792 | 40404 ft | 470 kts | 226° |
| 2026-04-23 20:49 | 53.55475 | 4.45703 | 40404 ft | 470 kts | 226° |
| 2026-04-23 20:50 | 53.51039 | 4.37634 | 40403 ft | 470 kts | 226° |
| 2026-04-23 20:50 | 53.46605 | 4.29594 | 40412 ft | 469 kts | 226° |
| 2026-04-23 20:51 | 53.42191 | 4.21616 | 40413 ft | 469 kts | 226° |
| 2026-04-23 20:51 | 53.37742 | 4.13603 | 40413 ft | 470 kts | 226° |
| 2026-04-23 20:52 | 53.33285 | 4.05601 | 40422 ft | 470 kts | 225° |
| 2026-04-23 20:52 | 53.28824 | 3.97617 | 40421 ft | 470 kts | 225° |
| 2026-04-23 20:53 | 53.24356 | 3.89649 | 40422 ft | 469 kts | 225° |
| 2026-04-23 20:53 | 53.19923 | 3.81768 | 40421 ft | 469 kts | 225° |
| 2026-04-23 20:54 | 53.15451 | 3.73842 | 40422 ft | 470 kts | 225° |
| 2026-04-23 20:54 | 53.10969 | 3.65927 | 40422 ft | 470 kts | 225° |
| 2026-04-23 20:55 | 53.06477 | 3.58018 | 40429 ft | 470 kts | 225° |
| 2026-04-23 20:55 | 53.02012 | 3.50183 | 40431 ft | 470 kts | 225° |
| 2026-04-23 20:56 | 52.97506 | 3.42301 | 40430 ft | 471 kts | 225° |
| 2026-04-23 20:56 | 52.92993 | 3.34432 | 40325 ft | 470 kts | 225° |
| 2026-04-23 20:57 | 52.90737 | 3.30509 | 40094 ft | 470 kts | 224° |
| 2026-04-23 20:57 | 52.88481 | 3.26591 | 39849 ft | 470 kts | 224° |
| 2026-04-23 20:57 | 52.86254 | 3.22732 | 39598 ft | 469 kts | 224° |
| 2026-04-23 20:57 | 52.84004 | 3.18838 | 39350 ft | 467 kts | 224° |
| 2026-04-23 20:58 | 52.81763 | 3.14968 | 39101 ft | 466 kts | 224° |
| 2026-04-23 20:58 | 52.79525 | 3.11104 | 38852 ft | 464 kts | 224° |
| 2026-04-23 20:58 | 52.77291 | 3.07254 | 38605 ft | 463 kts | 224° |
| 2026-04-23 20:58 | 52.75059 | 3.03414 | 38352 ft | 463 kts | 224° |
| 2026-04-23 20:59 | 52.72827 | 2.99583 | 38042 ft | 461 kts | 223° |
| 2026-04-23 20:59 | 52.70615 | 2.95787 | 37515 ft | 459 kts | 223° |
| 2026-04-23 20:59 | 52.68404 | 2.92003 | 36894 ft | 458 kts | 223° |
| 2026-04-23 20:59 | 52.66224 | 2.88276 | 36313 ft | 457 kts | 223° |
| 2026-04-23 21:00 | 52.64017 | 2.84510 | 35662 ft | 457 kts | 223° |
| 2026-04-23 21:00 | 52.61806 | 2.80743 | 34973 ft | 458 kts | 223° |
| 2026-04-23 21:00 | 52.59591 | 2.76975 | 34254 ft | 459 kts | 223° |
| 2026-04-23 21:00 | 52.57365 | 2.73195 | 33501 ft | 461 kts | 222° |
| 2026-04-23 21:01 | 52.55128 | 2.69401 | 32738 ft | 463 kts | 222° |
| 2026-04-23 21:01 | 52.52887 | 2.65606 | 31962 ft | 464 kts | 222° |
| 2026-04-23 21:01 | 52.50634 | 2.61799 | 31164 ft | 465 kts | 222° |
| 2026-04-23 21:01 | 52.48296 | 2.58272 | 30504 ft | 460 kts | 215° |
| 2026-04-23 21:02 | 52.45664 | 2.55363 | 30073 ft | 456 kts | 206° |
| 2026-04-23 21:02 | 52.42805 | 2.52935 | 29974 ft | 469 kts | 204° |
| 2026-04-23 21:02 | 52.36912 | 2.48166 | 29778 ft | 473 kts | 203° |
| 2026-04-23 21:03 | 52.33970 | 2.45791 | 29611 ft | 471 kts | 203° |
| 2026-04-23 21:03 | 52.31036 | 2.43422 | 29443 ft | 470 kts | 203° |
| 2026-04-23 21:03 | 52.28102 | 2.41054 | 29268 ft | 470 kts | 203° |
| 2026-04-23 21:03 | 52.25212 | 2.38726 | 29102 ft | 469 kts | 203° |
| 2026-04-23 21:04 | 52.22286 | 2.36371 | 28930 ft | 468 kts | 203° |
| 2026-04-23 21:04 | 52.19361 | 2.34019 | 28754 ft | 468 kts | 203° |
| 2026-04-23 21:04 | 52.16447 | 2.31678 | 28588 ft | 467 kts | 204° |
| 2026-04-23 21:04 | 52.13545 | 2.29329 | 28407 ft | 465 kts | 205° |
| 2026-04-23 21:05 | 52.10794 | 2.26551 | 28241 ft | 467 kts | 214° |
| 2026-04-23 21:05 | 52.08388 | 2.22983 | 28080 ft | 470 kts | 224° |
| 2026-04-23 21:05 | 52.06211 | 2.19021 | 27916 ft | 470 kts | 226° |
| 2026-04-23 21:05 | 52.04097 | 2.15060 | 27724 ft | 470 kts | 226° |
| 2026-04-23 21:06 | 52.01957 | 2.11061 | 27545 ft | 469 kts | 226° |
| 2026-04-23 21:06 | 51.99815 | 2.07077 | 27367 ft | 468 kts | 226° |
| 2026-04-23 21:06 | 51.97670 | 2.03105 | 27204 ft | 468 kts | 226° |
| 2026-04-23 21:06 | 51.95526 | 1.99148 | 27043 ft | 467 kts | 226° |
| 2026-04-23 21:07 | 51.93382 | 1.95200 | 26883 ft | 466 kts | 226° |
| 2026-04-23 21:07 | 51.91239 | 1.91263 | 26703 ft | 466 kts | 226° |
| 2026-04-23 21:07 | 51.89099 | 1.87338 | 26533 ft | 465 kts | 226° |
| 2026-04-23 21:07 | 51.86963 | 1.83425 | 26366 ft | 464 kts | 226° |
| 2026-04-23 21:08 | 51.84826 | 1.79518 | 26204 ft | 463 kts | 226° |
| 2026-04-23 21:08 | 51.82720 | 1.75673 | 26023 ft | 462 kts | 226° |
| 2026-04-23 21:08 | 51.80586 | 1.71783 | 25863 ft | 462 kts | 226° |
| 2026-04-23 21:08 | 51.78456 | 1.67906 | 25685 ft | 461 kts | 226° |
| 2026-04-23 21:09 | 51.76431 | 1.63885 | 25523 ft | 463 kts | 233° |
| 2026-04-23 21:09 | 51.74961 | 1.59253 | 25316 ft | 468 kts | 248° |
| 2026-04-23 21:09 | 51.74218 | 1.54138 | 24597 ft | 471 kts | 260° |
| 2026-04-23 21:09 | 51.73869 | 1.48876 | 23761 ft | 472 kts | 263° |
| 2026-04-23 21:10 | 51.73575 | 1.43695 | 23032 ft | 469 kts | 263° |
| 2026-04-23 21:10 | 51.73266 | 1.38485 | 22312 ft | 465 kts | 263° |
| 2026-04-23 21:10 | 51.72947 | 1.33317 | 21644 ft | 461 kts | 263° |
| 2026-04-23 21:10 | 51.72620 | 1.28209 | 20990 ft | 455 kts | 263° |
| 2026-04-23 21:11 | 51.72290 | 1.23159 | 20338 ft | 450 kts | 263° |
| 2026-04-23 21:11 | 51.71959 | 1.18162 | 19658 ft | 446 kts | 263° |
| 2026-04-23 21:11 | 51.71629 | 1.13216 | 18996 ft | 441 kts | 263° |
| 2026-04-23 21:11 | 51.71299 | 1.08330 | 18320 ft | 436 kts | 263° |
| 2026-04-23 21:12 | 51.70970 | 1.03495 | 17644 ft | 432 kts | 263° |
| 2026-04-23 21:12 | 51.70643 | 0.98708 | 16951 ft | 428 kts | 263° |
| 2026-04-23 21:12 | 51.70321 | 0.94022 | 16223 ft | 425 kts | 263° |
| 2026-04-23 21:12 | 51.69998 | 0.89315 | 15659 ft | 418 kts | 263° |
| 2026-04-23 21:13 | 51.69676 | 0.84706 | 15207 ft | 410 kts | 263° |
| 2026-04-23 21:13 | 51.69357 | 0.80168 | 14707 ft | 406 kts | 263° |
| 2026-04-23 21:13 | 51.69038 | 0.75652 | 14194 ft | 405 kts | 263° |
| 2026-04-23 21:13 | 51.68718 | 0.71145 | 13685 ft | 404 kts | 263° |
| 2026-04-23 21:14 | 51.68399 | 0.66659 | 13180 ft | 402 kts | 263° |
| 2026-04-23 21:14 | 51.68083 | 0.62200 | 12693 ft | 400 kts | 263° |
| 2026-04-23 21:14 | 51.67767 | 0.57829 | 12430 ft | 386 kts | 263° |
| 2026-04-23 21:14 | 51.67463 | 0.53666 | 12207 ft | 372 kts | 263° |
| 2026-04-23 21:15 | 51.67167 | 0.49598 | 11982 ft | 359 kts | 263° |
| 2026-04-23 21:15 | 51.66886 | 0.45702 | 11735 ft | 339 kts | 263° |
| 2026-04-23 21:15 | 51.66617 | 0.42040 | 11373 ft | 320 kts | 263° |
| 2026-04-23 21:15 | 51.66355 | 0.38533 | 10767 ft | 312 kts | 263° |
| 2026-04-23 21:16 | 51.66098 | 0.35092 | 10077 ft | 307 kts | 264° |
| 2026-04-23 21:16 | 51.65846 | 0.31700 | 9400 ft | 302 kts | 264° |
| 2026-04-23 21:16 | 51.65596 | 0.28371 | 8919 ft | 300 kts | 264° |
| 2026-04-23 21:16 | 51.65350 | 0.25095 | 8514 ft | 298 kts | 264° |
| 2026-04-23 21:17 | 51.65103 | 0.21802 | 8157 ft | 294 kts | 264° |
| 2026-04-23 21:17 | 51.64861 | 0.18592 | 7994 ft | 283 kts | 263° |
| 2026-04-23 21:17 | 51.64627 | 0.15514 | 7848 ft | 271 kts | 264° |
| 2026-04-23 21:17 | 51.64427 | 0.12566 | 7448 ft | 261 kts | 265° |
| 2026-04-23 21:18 | 51.64279 | 0.09713 | 7392 ft | 256 kts | 266° |
| 2026-04-23 21:18 | 51.64130 | 0.06834 | 7394 ft | 258 kts | 266° |
| 2026-04-23 21:18 | 51.63976 | 0.03957 | 7393 ft | 258 kts | 266° |
| 2026-04-23 21:18 | 51.63821 | 0.01085 | 7359 ft | 258 kts | 266° |
| 2026-04-23 21:19 | 51.63663 | -0.01772 | 7026 ft | 259 kts | 265° |
| 2026-04-23 21:19 | 51.63505 | -0.04641 | 6769 ft | 258 kts | 265° |
| 2026-04-23 21:19 | 51.63344 | -0.07512 | 6594 ft | 257 kts | 264° |
| 2026-04-23 21:19 | 51.63182 | -0.10383 | 6558 ft | 258 kts | 264° |
| 2026-04-23 21:20 | 51.63019 | -0.13250 | 6551 ft | 257 kts | 264° |
| 2026-04-23 21:20 | 51.62857 | -0.16119 | 6551 ft | 257 kts | 264° |
| 2026-04-23 21:20 | 51.62694 | -0.18984 | 6549 ft | 257 kts | 264° |
| 2026-04-23 21:20 | 51.62528 | -0.21850 | 6550 ft | 257 kts | 263° |
| 2026-04-23 21:21 | 51.62365 | -0.24679 | 6550 ft | 257 kts | 264° |
| 2026-04-23 21:21 | 51.62200 | -0.27546 | 6544 ft | 257 kts | 264° |
| 2026-04-23 21:21 | 51.62033 | -0.30410 | 6510 ft | 257 kts | 263° |
| 2026-04-23 21:21 | 51.61865 | -0.33272 | 6379 ft | 256 kts | 263° |
| 2026-04-23 21:22 | 51.61697 | -0.36130 | 6234 ft | 256 kts | 263° |
| 2026-04-23 21:22 | 51.61527 | -0.38981 | 6078 ft | 256 kts | 263° |
| 2026-04-23 21:22 | 51.61358 | -0.41838 | 5928 ft | 255 kts | 263° |
| 2026-04-23 21:22 | 51.61187 | -0.44672 | 5782 ft | 255 kts | 263° |
| 2026-04-23 21:23 | 51.61021 | -0.47467 | 5634 ft | 254 kts | 263° |
| 2026-04-23 21:23 | 51.60855 | -0.50296 | 5485 ft | 254 kts | 263° |
| 2026-04-23 21:23 | 51.60686 | -0.53121 | 5341 ft | 254 kts | 263° |
| 2026-04-23 21:23 | 51.60513 | -0.55944 | 5191 ft | 253 kts | 263° |
| 2026-04-23 21:24 | 51.60341 | -0.58764 | 5034 ft | 253 kts | 263° |
| 2026-04-23 21:24 | 51.60170 | -0.61572 | 4884 ft | 252 kts | 263° |
| 2026-04-23 21:24 | 51.59998 | -0.64388 | 4736 ft | 253 kts | 263° |
| 2026-04-23 21:24 | 51.59830 | -0.67201 | 4586 ft | 252 kts | 263° |
| 2026-04-23 21:25 | 51.59658 | -0.69972 | 4440 ft | 252 kts | 263° |
| 2026-04-23 21:25 | 51.59391 | -0.72743 | 4285 ft | 251 kts | 251° |
| 2026-04-23 21:25 | 51.58539 | -0.75114 | 4142 ft | 243 kts | 220° |
| 2026-04-23 21:25 | 51.57137 | -0.76487 | 3982 ft | 234 kts | 195° |
| 2026-04-23 21:26 | 51.55591 | -0.77299 | 3838 ft | 234 kts | 192° |
| 2026-04-23 21:26 | 51.54032 | -0.78036 | 3687 ft | 232 kts | 192° |
| 2026-04-23 21:26 | 51.52512 | -0.78630 | 3549 ft | 217 kts | 182° |
| 2026-04-23 21:26 | 51.51078 | -0.78546 | 3538 ft | 197 kts | 162° |
| 2026-04-23 21:27 | 51.49879 | -0.77761 | 3541 ft | 180 kts | 144° |
| 2026-04-23 21:27 | 51.48854 | -0.76642 | 3520 ft | 178 kts | 139° |
| 2026-04-23 21:27 | 51.47984 | -0.75287 | 3521 ft | 176 kts | 121° |
| 2026-04-23 21:27 | 51.47608 | -0.73447 | 3376 ft | 178 kts | 94° |
| 2026-04-23 21:28 | 51.47662 | -0.71429 | 2935 ft | 183 kts | 87° |
| 2026-04-23 21:28 | 51.47689 | -0.69410 | 2636 ft | 178 kts | 91° |
| 2026-04-23 21:28 | 51.47677 | -0.67509 | 2403 ft | 163 kts | 90° |
| 2026-04-23 21:28 | 51.47686 | -0.65767 | 2193 ft | 149 kts | 89° |
| 2026-04-23 21:29 | 51.47692 | -0.64141 | 1999 ft | 144 kts | 90° |
| 2026-04-23 21:29 | 51.47695 | -0.63082 | 1871 ft | 141 kts | 89° |
| 2026-04-23 21:29 | 51.47702 | -0.61420 | 1678 ft | 130 kts | 89° |
| 2026-04-23 21:29 | 51.47707 | -0.60000 | 1506 ft | 127 kts | 89° |
| 2026-04-23 21:30 | 51.47712 | -0.58594 | 1346 ft | 129 kts | 89° |
| 2026-04-23 21:30 | 51.47717 | -0.57152 | 1162 ft | 130 kts | 89° |
| 2026-04-23 21:30 | 51.47722 | -0.55704 | 997 ft | 130 kts | 89° |
| 2026-04-23 21:30 | 51.47728 | -0.54259 | 818 ft | 130 kts | 89° |
| 2026-04-23 21:31 | 51.47733 | -0.52813 | 650 ft | 129 kts | 89° |
| 2026-04-23 21:31 | 51.47738 | -0.51372 | 469 ft | 129 kts | 89° |
| 2026-04-23 21:31 | 51.47743 | -0.49927 | 304 ft | 130 kts | 89° |
| 2026-04-23 21:31 | 51.47749 | -0.48480 | 141 ft | 129 kts | 89° |
| 2026-04-23 21:32 | 51.47754 | -0.47115 | 96 ft | 114 kts | 89° |
| 2026-04-23 21:32 | 51.47755 | -0.46268 | 97 ft | 50 kts | 89° |
| 2026-04-23 21:32 | 51.47757 | -0.45740 | 94 ft | 32 kts | 92° |
| 2026-04-23 21:32 | 51.47748 | -0.45567 | 91 ft | 13 kts | 101° |
| 2026-04-23 21:33 | 51.47709 | -0.45490 | 92 ft | 10 kts | 152° |
| 2026-04-23 21:33 | 51.47638 | -0.45476 | 92 ft | 10 kts | 195° |
| 2026-04-23 21:33 | 51.47601 | -0.45573 | 92 ft | 12 kts | 259° |
| 2026-04-23 21:33 | 51.47594 | -0.45716 | 92 ft | 14 kts | 269° |
| 2026-04-23 21:34 | 51.47593 | -0.45890 | 94 ft | 17 kts | 269° |
| 2026-04-23 21:34 | 51.47592 | -0.45984 | 94 ft | 0 kts | 266° |
| 2026-04-23 21:34 | 51.47579 | -0.46042 | 94 ft | 8 kts | 229° |
| 2026-04-23 21:34 | 51.47532 | -0.46119 | 93 ft | 11 kts | 241° |
| 2026-04-23 21:35 | 51.47519 | -0.46252 | 94 ft | 14 kts | 268° |
| 2026-04-23 21:35 | 51.47518 | -0.46438 | 92 ft | 20 kts | 270° |
| 2026-04-23 21:35 | 51.47510 | -0.46672 | 92 ft | 22 kts | 259° |
| 2026-04-23 21:35 | 51.47483 | -0.46749 | 94 ft | 3 kts | 190° |
| 2026-04-23 21:36 | 51.47402 | -0.46737 | 92 ft | 9 kts | 173° |
| 2026-04-23 21:36 | 51.47331 | -0.46727 | 92 ft | 12 kts | 176° |
| 2026-04-23 21:36 | 51.47255 | -0.46766 | 92 ft | 12 kts | 233° |
| 2026-04-23 21:37 | 51.47269 | -0.46882 | 94 ft | 11 kts | 304° |
| 2026-04-23 21:37 | 51.47287 | -0.46972 | 93 ft | 0 kts | 276° |
| 2026-04-23 21:37 | 51.47291 | -0.47018 | 92 ft | 0 kts | 270° |